Main page
METAR-TAF:

METAR-TAF

Airports :

Lake City Gateway Airport

Lake City, Florida, United States

latitude: 30-10-55N, longitude: 082-34-37W, elevation: 200 ft

Current weather observation

The report was made 38 minutes ago, at 20:50 UTC
Wind 6 mph from the Southwest
Temperature 82°F
Humidity 45%
Pressure 30.16 in. Hg
Visibility: 10 miles
Scattered clouds at a height of 5500 ft
Scattered clouds at a height of 7000 ft

METAR: KLCQ 272050Z AUTO 22005KT 10SM SCT055 SCT070 28/15 A3016 RMK AO2

Time: 16:28 (21:28 UTC)


TAF: missing

Weather observations and forecasts of more than 4000 airports (METAR and TAF reports).

The available stations are represented by yellow and red dots on the map.

Hover mouse over dot to see the name of the station.

Then click to see weather observations and forecasts.

To change the map : click on the green buttons with a black cross to zoom in, on the green button with a dash to zoom out, or on the green arrows for adjacent maps.


METAR-TAF: